首页
METAR-TAF:

METAR-TAF

机场 :

辛菲羅波爾國際機場

辛菲罗波尔, 俄罗斯

纬度: 45-03-08N, 经度: 033-58-31E, 海拔: 195米

当前天气观测

该预报发布于30分钟前的18:30 UTC
风速16节,风向东转东北
温度 1°C
湿度 100%
气压 1010 hPa
能見度: 1000
碎片雾, 轻雾

METAR: URFF 121830Z 06008MPS 1300 1000W R01/P2000D BCFG BR VV002 01/01 Q1010 R01/090095 BECMG 0300 FG OVC001 RMK OBST OBSC

时间: 22:00 (19:00 UTC)

预报

该预报发布于2小时和4分钟前的16:56 UTC
预报有效从12日的 18点(UTC)到 13日的 18点(UTC)
风速17节,风向东北,有时为27节阵风
能見度: 0300
阴天层高于200英尺
冻雾
短暂存在
从 12日的 18点(UTC)到 13日的 09点(UTC)
能見度: 3100
散云层高于1100英尺
轻雾
成为
从 12日的 20点(UTC)到 12日的 22点(UTC)
风速6节,风向
成为
从 13日的 09点(UTC)到 13日的 11点(UTC)
能見度: 5000
多云层高于1100英尺
散云层高于2000英尺, 积雨云.
轻雾

TAF: URFF 121656Z 1218/1318 05009G14MPS 0300 FZFG OVC002 TX06/1310Z TNM01/1302Z TEMPO 1218/1309 3100 BR SCT011 BECMG 1220/1222 08003MPS BECMG 1309/1311 5000 BR BKN011 SCT020CB

超过4000个机场的气象观测和天气预报(METAR&TAF报告)。

可查询的气象台以黄色和红色小点在地图上表示。

将鼠标移到小点上方,可查看气象台名称。

然后点击查看天气观测和预报。

如需切换地图:点击带黑十字的绿色按钮放大地图;点击带横线的绿色按钮缩小地图;或者点击绿色箭头查看邻近地区的地图。


METAR-TAF: